Observation data for Goodlett on 07/07/2020      Previous  Date  Next       Current Mesonet Observations  Soil Data  Daily Summary Page  Observations in Plain Language
KGDS 070500Z 11002KT 25/20 A2997 RMK A01 T02450197  RH  079%=      5-min Rain = 0
KGDS 070505Z 12003KT 25/20 A2997 RMK A01 T02460197  RH  078%=      5-min Rain = 0
KGDS 070510Z 13003KT 25/20 A2997 RMK A01 T02450195  RH  078%=      5-min Rain = 0
KGDS 070515Z 15003KT 24/19 A2997 RMK A01 T02430194  RH  078%=      5-min Rain = 0
KGDS 070520Z 16002KT 24/19 A2997 RMK A01 T02440192  RH  077%=      5-min Rain = 0
KGDS 070525Z 17002KT 24/19 A2997 RMK A01 T02440188  RH  075%=      5-min Rain = 0
KGDS 070530Z 17002KT 24/19 A2997 RMK A01 T02430188  RH  075%=      5-min Rain = 0
KGDS 070535Z 20002KT 24/19 A2997 RMK A01 T02420189  RH  076%=      5-min Rain = 0
KGDS 070540Z 20001KT 24/19 A2997 RMK A01 T02410191  RH  078%=      5-min Rain = 0
KGDS 070545Z 18001KT 24/19 A2997 RMK A01 T02420194  RH  079%=      5-min Rain = 0
KGDS 070550Z 15002KT 24/19 A2997 RMK A01 T02420194  RH  079%=      5-min Rain = 0
KGDS 070555Z 14002KT 24/20 A2997 RMK A01 T02430195  RH  079%=      5-min Rain = 0
KGDS 070600Z 10001KT 24/19 A2997 RMK A01 T02400191  RH  078%=      5-min Rain = 0
KGDS 070605Z 08000KT 23/19 A2997 RMK A01 T02340190  RH  081%=      5-min Rain = 0
KGDS 070610Z 07000KT 24/19 A2997 RMK A01 T02350193  RH  082%=      5-min Rain = 0
KGDS 070615Z 07000KT 24/19 A2997 RMK A01 T02360193  RH  081%=      5-min Rain = 0
KGDS 070620Z 06002KT 24/19 A2997 RMK A01 T02350192  RH  081%=      5-min Rain = 0
KGDS 070625Z 06002KT 24/19 A2997 RMK A01 T02350194  RH  082%=      5-min Rain = 0
KGDS 070630Z 06003KT 23/19 A2997 RMK A01 T02320190  RH  082%=      5-min Rain = 0
KGDS 070635Z 05003KT 23/19 A2997 RMK A01 T02300190  RH  083%=      5-min Rain = 0
KGDS 070640Z 05003KT 23/19 A2997 RMK A01 T02270189  RH  083%=      5-min Rain = 0
KGDS 070645Z 04003KT 23/19 A2997 RMK A01 T02250187  RH  084%=      5-min Rain = 0
KGDS 070650Z 04003KT 22/19 A2997 RMK A01 T02230188  RH  085%=      5-min Rain = 0
KGDS 070655Z 03004KT 22/19 A2997 RMK A01 T02220189  RH  086%=      5-min Rain = 0
KGDS 070700Z 03004KT 22/19 A2998 RMK A01 T02210189  RH  087%=      5-min Rain = 0
KGDS 070705Z 03005KT 22/19 A2998 RMK A01 T02200190  RH  088%=      5-min Rain = 0
KGDS 070710Z 03005KT 22/19 A2998 RMK A01 T02190192  RH  089%=      5-min Rain = 0
KGDS 070715Z 04005KT 22/19 A2998 RMK A01 T02190193  RH  090%=      5-min Rain = 0
KGDS 070720Z 03005KT 22/19 A2998 RMK A01 T02190192  RH  090%=      5-min Rain = 0
KGDS 070725Z 03005KT 22/19 A2998 RMK A01 T02200192  RH  089%=      5-min Rain = 0
KGDS 070730Z 04005KT 22/19 A2998 RMK A01 T02200193  RH  090%=      5-min Rain = 0
KGDS 070735Z 03004KT 22/19 A2998 RMK A01 T02200194  RH  090%=      5-min Rain = 0
KGDS 070740Z 04004KT 22/19 A2998 RMK A01 T02200194  RH  090%=      5-min Rain = 0
KGDS 070745Z 04004KT 22/19 A2998 RMK A01 T02200194  RH  090%=      5-min Rain = 0
KGDS 070750Z 05004KT 22/19 A2998 RMK A01 T02200194  RH  090%=      5-min Rain = 0
KGDS 070755Z 06005KT 22/20 A2998 RMK A01 T02200195  RH  091%=      5-min Rain = 0
KGDS 070800Z 06004KT 22/20 A2998 RMK A01 T02210196  RH  091%=      5-min Rain = 0
KGDS 070805Z 06005KT 22/20 A2998 RMK A01 T02200196  RH  091%=      5-min Rain = 0
KGDS 070810Z 07005KT 22/20 A2998 RMK A01 T02210197  RH  091%=      5-min Rain = 0
KGDS 070815Z 07006KT 22/20 A2998 RMK A01 T02210197  RH  092%=      5-min Rain = 0
KGDS 070820Z 07006KT 22/20 A2998 RMK A01 T02220199  RH  092%=      5-min Rain = 0
KGDS 070825Z 07005KT 22/20 A2998 RMK A01 T02230201  RH  092%=      5-min Rain = 0
KGDS 070830Z 07005KT 22/20 A2998 RMK A01 T02220200  RH  092%=      5-min Rain = 0
KGDS 070835Z 07004KT 22/20 A2998 RMK A01 T02210199  RH  093%=      5-min Rain = 0
KGDS 070840Z 07004KT 22/20 A2998 RMK A01 T02200200  RH  093%=      5-min Rain = 0
KGDS 070845Z 05004KT 22/20 A2998 RMK A01 T02190198  RH  093%=      5-min Rain = 0
KGDS 070850Z 04004KT 22/20 A2998 RMK A01 T02180198  RH  094%=      5-min Rain = 0
KGDS 070855Z 06003KT 22/20 A2998 RMK A01 T02170198  RH  094%=      5-min Rain = 0
KGDS 070900Z 06003KT 22/20 A2998 RMK A01 T02170198  RH  095%=      5-min Rain = 0
KGDS 070905Z 05003KT 22/20 A2998 RMK A01 T02170199  RH  095%=      5-min Rain = 0
KGDS 070910Z 04003KT 22/20 A2998 RMK A01 T02160198  RH  095%=      5-min Rain = 0
KGDS 070915Z 05003KT 22/20 A2998 RMK A01 T02150198  RH  095%=      5-min Rain = 0
KGDS 070920Z 06003KT 22/20 A2998 RMK A01 T02160199  RH  096%=      5-min Rain = 0
KGDS 070925Z 06003KT 22/20 A2998 RMK A01 T02170201  RH  096%=      5-min Rain = 0
KGDS 070930Z 06002KT 22/20 A2998 RMK A01 T02170201  RH  096%=      5-min Rain = 0
KGDS 070935Z 06002KT 22/20 A2998 RMK A01 T02180202  RH  096%=      5-min Rain = 0
KGDS 070940Z 07001KT 22/20 A2998 RMK A01 T02170202  RH  096%=      5-min Rain = 0
KGDS 070945Z 07001KT 22/20 A2998 RMK A01 T02170202  RH  097%=      5-min Rain = 0
KGDS 070950Z 07001KT 22/20 A2998 RMK A01 T02170203  RH  097%=      5-min Rain = 0
KGDS 070955Z 10001KT 22/20 A2998 RMK A01 T02170203  RH  097%=      5-min Rain = 0
KGDS 071000Z 10000KT 22/20 A2998 RMK A01 T02180204  RH  097%=      5-min Rain = 0
KGDS 071005Z 00000KT 22/20 A2998 RMK A01 T02170203  RH  097%=      5-min Rain = 0
KGDS 071010Z 04002KT 22/20 A2998 RMK A01 T02170203  RH  097%=      5-min Rain = 0
KGDS 071015Z 04002KT 21/20 A2998 RMK A01 T02140199  RH  097%=      5-min Rain = 0
KGDS 071020Z 05002KT 21/20 A2998 RMK A01 T02120198  RH  097%=      5-min Rain = 0
KGDS 071025Z 05003KT 21/20 A2998 RMK A01 T02130200  RH  098%=      5-min Rain = 0
KGDS 071030Z 05002KT 21/20 A2998 RMK A01 T02140201  RH  098%=      5-min Rain = 0
KGDS 071035Z 05002KT 21/20 A2998 RMK A01 T02120200  RH  098%=      5-min Rain = 0
KGDS 071040Z 04003KT 21/20 A2998 RMK A01 T02130200  RH  098%=      5-min Rain = 0
KGDS 071045Z 06003KT 21/20 A2998 RMK A01 T02120200  RH  098%=      5-min Rain = 0
KGDS 071050Z 06003KT 21/20 A2998 RMK A01 T02110199  RH  098%=      5-min Rain = 0
KGDS 071055Z 06004KT 21/20 A2998 RMK A01 T02110199  RH  098%=      5-min Rain = 0
KGDS 071100Z 06004KT 21/20 A2998 RMK A01 T02120200  RH  099%=      5-min Rain = 0
KGDS 071105Z 06003KT 21/20 A2998 RMK A01 T02140202  RH  099%=      5-min Rain = 0
KGDS 071110Z 05003KT 22/20 A2998 RMK A01 T02150204  RH  099%=      5-min Rain = 0
KGDS 071115Z 04002KT 22/20 A2998 RMK A01 T02150204  RH  099%=      5-min Rain = 0
KGDS 071120Z 02002KT 22/20 A2999 RMK A01 T02150204  RH  099%=      5-min Rain = 0
KGDS 071125Z 02001KT 21/20 A2999 RMK A01 T02140203  RH  099%=      5-min Rain = 0
KGDS 071130Z 03002KT 21/20 A2999 RMK A01 T02140203  RH  099%=      5-min Rain = 0
KGDS 071135Z 04002KT 21/20 A2999 RMK A01 T02130203  RH  099%=      5-min Rain = 0
KGDS 071140Z 05003KT 21/20 A2999 RMK A01 T02120202  RH  099%=      5-min Rain = 0
KGDS 071145Z 05003KT 21/20 A2999 RMK A01 T02120202  RH  099%=      5-min Rain = 0
KGDS 071150Z 06002KT 21/20 A2999 RMK A01 T02120202  RH  099%=      5-min Rain = 0
KGDS 071155Z 05002KT 21/20 A2999 RMK A01 T02120202  RH  100%=      5-min Rain = 0
KGDS 071200Z 05002KT 21/20 A2999 RMK A01 T02130203  RH  100%=      5-min Rain = 0
KGDS 071205Z 06002KT 21/20 A30 RMK A01 T02140204  RH  100%=      5-min Rain = 0
KGDS 071210Z 06002KT 22/21 A30 RMK A01 T02150205  RH  100%=      5-min Rain = 0
KGDS 071215Z 07002KT 22/21 A30 RMK A01 T02160206  RH  100%=      5-min Rain = 0
KGDS 071220Z 11003KT 22/21 A30 RMK A01 T02180208  RH  100%=      5-min Rain = 0
KGDS 071225Z 12004KT 22/21 A30 RMK A01 T02190209  RH  100%=      5-min Rain = 0
KGDS 071230Z 12004KT 22/21 A30 RMK A01 T02190209  RH  100%=      5-min Rain = 0
KGDS 071235Z 13004KT 22/21 A30 RMK A01 T02190209  RH  100%=      5-min Rain = 0
KGDS 071240Z 11002KT 22/21 A30 RMK A01 T02190209  RH  100%=      5-min Rain = 0
KGDS 071245Z 11003KT 22/21 A30 RMK A01 T02190209  RH  100%=      5-min Rain = 0
KGDS 071250Z 09002KT 22/21 A30 RMK A01 T02200210  RH  100%=      5-min Rain = 0
KGDS 071255Z 08003KT 22/21 A30 RMK A01 T02200210  RH  100%=      5-min Rain = 0
KGDS 071300Z 10001KT 22/21 A30 RMK A01 T02200210  RH  100%=      5-min Rain = 0
KGDS 071305Z 09000KT 22/21 A30 RMK A01 T02210211  RH  100%=      5-min Rain = 0
KGDS 071310Z 06003KT 22/21 A3001 RMK A01 T02220212  RH  100%=      5-min Rain = 0
KGDS 071315Z 06002KT 22/21 A3001 RMK A01 T02220212  RH  100%=      5-min Rain = 0
KGDS 071320Z 08003KT 22/21 A3001 RMK A01 T02230213  RH  100%=      5-min Rain = 0
KGDS 071325Z 08004KT 22/21 A3001 RMK A01 T02230212  RH  100%=      5-min Rain = 0
KGDS 071330Z 06004KT 22/21 A3001 RMK A01 T02220211  RH  100%=      5-min Rain = 0
KGDS 071335Z 07005KT 22/21 A3001 RMK A01 T02210211  RH  100%=      5-min Rain = 0
KGDS 071340Z 09004KT 22/21 A3001 RMK A01 T02220212  RH  100%=      5-min Rain = 0
KGDS 071345Z 07005KT 22/21 A3001 RMK A01 T02230213  RH  100%=      5-min Rain = 0
KGDS 071350Z 08005KT 22/21 A3002 RMK A01 T02240213  RH  100%=      5-min Rain = 0
KGDS 071355Z 08005KT 23/21 A3002 RMK A01 T02250214  RH  099%=      5-min Rain = 0
KGDS 071400Z 06005KT 23/21 A3002 RMK A01 T02250214  RH  099%=      5-min Rain = 0
KGDS 071405Z 05005KT 23/22 A3002 RMK A01 T02270215  RH  099%=      5-min Rain = 0
KGDS 071410Z 04003KT 23/22 A3002 RMK A01 T02280215  RH  099%=      5-min Rain = 0
KGDS 071415Z 07003KT 23/22 A3002 RMK A01 T02290216  RH  098%=      5-min Rain = 0
KGDS 071420Z 08002KT 23/22 A3002 RMK A01 T02300216  RH  098%=      5-min Rain = 0
KGDS 071425Z 04003KT 23/22 A3002 RMK A01 T02330217  RH  097%=      5-min Rain = 0
KGDS 071430Z 01001KT 24/22 A3002 RMK A01 T02350216  RH  095%=      5-min Rain = 0
KGDS 071435Z 08001KT 24/22 A3002 RMK A01 T02370216  RH  094%=      5-min Rain = 0
KGDS 071440Z 06001KT 24/21 A3002 RMK A01 T02380214  RH  092%=      5-min Rain = 0
KGDS 071445Z 14001KT 24/21 A3002 RMK A01 T02420214  RH  090%=      5-min Rain = 0
KGDS 071450Z 18002KT 25/21 A3001 RMK A01 T02460214  RH  087%=      5-min Rain = 0
KGDS 071455Z 13002KT 25/21 A3001 RMK A01 T02530214  RH  084%=      5-min Rain = 0
KGDS 071500Z 09003KT 26/21 A3001 RMK A01 T02560213  RH  082%=      5-min Rain = 0
KGDS 071505Z 09003KT 26/21 A3001 RMK A01 T02570212  RH  081%=      5-min Rain = 0
KGDS 071510Z 10002KT 26/21 A30 RMK A01 T02630212  RH  078%=      5-min Rain = 0
KGDS 071515Z 08003KT 27/21 A30 RMK A01 T02650210  RH  076%=      5-min Rain = 0
KGDS 071520Z 06002KT 26/21 A30 RMK A01 T02640209  RH  076%=      5-min Rain = 0
KGDS 071525Z 01002KT 26/21 A30 RMK A01 T02590208  RH  078%=      5-min Rain = 0
KGDS 071530Z 35002KT 26/21 A3001 RMK A01 T02560207  RH  079%=      5-min Rain = 0
KGDS 071535Z 02002KT 26/21 A3001 RMK A01 T02630209  RH  077%=      5-min Rain = 0
KGDS 071540Z 03002KT 27/21 A3001 RMK A01 T02670207  RH  074%=      5-min Rain = 0
KGDS 071545Z 01002KT 27/21 A3001 RMK A01 T02670205  RH  073%=      5-min Rain = 0
KGDS 071550Z 05004KT 27/21 A3001 RMK A01 T02730205  RH  071%=      5-min Rain = 0
KGDS 071555Z 04005KT 28/20 A3001 RMK A01 T02750204  RH  069%=      5-min Rain = 0
KGDS 071600Z 02005KT 28/20 A3001 RMK A01 T02760204  RH  069%=      5-min Rain = 0
KGDS 071605Z 05006KT 28/20 A3001 RMK A01 T02800204  RH  067%=      5-min Rain = 0
KGDS 071610Z 05006KT 28/20 A3001 RMK A01 T02840204  RH  066%=      5-min Rain = 0
KGDS 071615Z 05005KT 28/20 A3001 RMK A01 T02820203  RH  066%=      5-min Rain = 0
KGDS 071620Z 04006KT 29/20 A3001 RMK A01 T02850204  RH  065%=      5-min Rain = 0
KGDS 071625Z 05006KT 28/20 A3001 RMK A01 T02830200  RH  065%=      5-min Rain = 0
KGDS 071630Z 03007KT 28/20 A3001 RMK A01 T02840202  RH  065%=      5-min Rain = 0
KGDS 071635Z 03006G11KT 29/20 A3001 RMK A01 T02880200  RH  062%=      5-min Rain = 0
KGDS 071640Z 05006KT 29/20 A3001 RMK A01 T02900200  RH  062%=      5-min Rain = 0
KGDS 071645Z 05003KT 29/20 A30 RMK A01 T02910201  RH  062%=      5-min Rain = 0
KGDS 071650Z 04007KT 30/20 A3001 RMK A01 T02950196  RH  059%=      5-min Rain = 0
KGDS 071655Z 04007G13KT 29/20 A3001 RMK A01 T02930198  RH  060%=      5-min Rain = 0
KGDS 071700Z 03005G11KT 29/20 A3001 RMK A01 T02900196  RH  060%=      5-min Rain = 0
KGDS 071705Z 06006KT 29/20 A3001 RMK A01 T02930198  RH  060%=      5-min Rain = 0
KGDS 071710Z 05006G11KT 29/20 A3001 RMK A01 T02940197  RH  060%=      5-min Rain = 0
KGDS 071715Z 06006G11KT 30/20 A3001 RMK A01 T02970196  RH  058%=      5-min Rain = 0
KGDS 071720Z 04006G12KT 30/20 A3001 RMK A01 T02990197  RH  058%=      5-min Rain = 0
KGDS 071725Z 04009G14KT 30/20 A3001 RMK A01 T03040198  RH  057%=      5-min Rain = 0
KGDS 071730Z 03009KT 30/20 A3001 RMK A01 T03040197  RH  056%=      5-min Rain = 0
KGDS 071735Z 05007G12KT 30/20 A3001 RMK A01 T03010196  RH  057%=      5-min Rain = 0
KGDS 071740Z 04006KT 30/20 A3001 RMK A01 T02970196  RH  058%=      5-min Rain = 0
KGDS 071745Z 05008KT 30/20 A3001 RMK A01 T03010196  RH  057%=      5-min Rain = 0
KGDS 071750Z 05006G11KT 30/20 A30 RMK A01 T03040195  RH  055%=      5-min Rain = 0
KGDS 071755Z 07008G14KT 31/19 A30 RMK A01 T03050194  RH  055%=      5-min Rain = 0
KGDS 071800Z 08007G13KT 31/19 A30 RMK A01 T03050194  RH  055%=      5-min Rain = 0
KGDS 071805Z 10005G11KT 30/20 A30 RMK A01 T03000195  RH  056%=      5-min Rain = 0
KGDS 071810Z 12006KT 31/20 A30 RMK A01 T03090198  RH  055%=      5-min Rain = 0
KGDS 071815Z 08007G12KT 31/19 A30 RMK A01 T03120194  RH  052%=      5-min Rain = 0
KGDS 071820Z 09006G11KT 31/19 A30 RMK A01 T03090190  RH  052%=      5-min Rain = 0
KGDS 071825Z 10007KT 31/19 A30 RMK A01 T03100192  RH  052%=      5-min Rain = 0
KGDS 071830Z 08007G12KT 31/19 A30 RMK A01 T03090192  RH  053%=      5-min Rain = 0
KGDS 071835Z 09005G11KT 32/19 A30 RMK A01 T03160190  RH  050%=      5-min Rain = 0
KGDS 071840Z 09007G12KT 32/19 A2999 RMK A01 T03180192  RH  050%=      5-min Rain = 0
KGDS 071845Z 10007G12KT 32/19 A2999 RMK A01 T03220188  RH  048%=      5-min Rain = 0
KGDS 071850Z 10008G20KT 32/19 A2999 RMK A01 T03150192  RH  051%=      5-min Rain = 0
KGDS 071855Z 11009KT 32/19 A2999 RMK A01 T03170192  RH  050%=      5-min Rain = 0
KGDS 071900Z 11008KT 32/19 A2998 RMK A01 T03170193  RH  051%=      5-min Rain = 0
KGDS 071905Z 13009G17KT 32/19 A2998 RMK A01 T03200193  RH  050%=      5-min Rain = 0
KGDS 071910Z 11009G14KT 31/19 A2998 RMK A01 T03090192  RH  053%=      5-min Rain = 0
KGDS 071915Z 12013G18KT 31/20 A2998 RMK A01 T03080198  RH  055%=      5-min Rain = 0
KGDS 071920Z 13010KT 31/20 A2998 RMK A01 T03050198  RH  056%=      5-min Rain = 0
KGDS 071925Z 12008G16KT 31/20 A2998 RMK A01 T03060198  RH  056%=      5-min Rain = 0
KGDS 071930Z 13009KT 31/20 A2997 RMK A01 T03090196  RH  054%=      5-min Rain = 0
KGDS 071935Z 13009G15KT 32/20 A2997 RMK A01 T03180195  RH  051%=      5-min Rain = 0
KGDS 071940Z 12008G16KT 32/20 A2997 RMK A01 T03180195  RH  051%=      5-min Rain = 0
KGDS 071945Z 13010G15KT 33/20 A2997 RMK A01 T03250195  RH  049%=      5-min Rain = 0
KGDS 071950Z 10007KT 32/19 A2997 RMK A01 T03210191  RH  049%=      5-min Rain = 0
KGDS 071955Z 11008KT 32/19 A2996 RMK A01 T03210190  RH  048%=      5-min Rain = 0
KGDS 072000Z 09006G13KT 33/19 A2996 RMK A01 T03270191  RH  047%=      5-min Rain = 0
KGDS 072005Z 15003G8KT 33/19 A2996 RMK A01 T03250191  RH  048%=      5-min Rain = 0
KGDS 072010Z 07007G13KT 32/19 A2996 RMK A01 T03210191  RH  049%=      5-min Rain = 0
KGDS 072015Z 08009G15KT 32/19 A2996 RMK A01 T03170190  RH  050%=      5-min Rain = 0
KGDS 072020Z 08008KT 32/19 A2996 RMK A01 T03170189  RH  049%=      5-min Rain = 0
KGDS 072025Z 11010G19KT 32/19 A2995 RMK A01 T03160191  RH  050%=      5-min Rain = 0
KGDS 072030Z 14010KT 31/19 A2995 RMK A01 T03140189  RH  050%=      5-min Rain = 0
KGDS 072035Z 12008KT 32/19 A2995 RMK A01 T03240190  RH  048%=      5-min Rain = 0
KGDS 072040Z 09008G16KT 33/19 A2995 RMK A01 T03250187  RH  047%=      5-min Rain = 0
KGDS 072045Z 08007KT 32/19 A2995 RMK A01 T03150185  RH  049%=      5-min Rain = 0
KGDS 072050Z 09008G15KT 32/18 A2994 RMK A01 T03200184  RH  047%=      5-min Rain = 0
KGDS 072055Z 13005KT 33/18 A2994 RMK A01 T03280183  RH  045%=      5-min Rain = 0
KGDS 072100Z 08006KT 33/18 A2994 RMK A01 T03290183  RH  044%=      5-min Rain = 0
KGDS 072105Z 12004G11KT 33/18 A2994 RMK A01 T03290182  RH  044%=      5-min Rain = 0
KGDS 072110Z 09008KT 33/18 A2994 RMK A01 T03280182  RH  044%=      5-min Rain = 0
KGDS 072115Z 09008G13KT 32/19 A2993 RMK A01 T03240186  RH  047%=      5-min Rain = 0
KGDS 072120Z 12003G13KT 32/18 A2993 RMK A01 T03240182  RH  045%=      5-min Rain = 0
KGDS 072125Z 11008G13KT 33/18 A2993 RMK A01 T03290184  RH  045%=      5-min Rain = 0
KGDS 072130Z 12005KT 33/18 A2993 RMK A01 T03300181  RH  043%=      5-min Rain = 0
KGDS 072135Z 09004G9KT 33/18 A2992 RMK A01 T03330182  RH  043%=      5-min Rain = 0
KGDS 072140Z 11007G12KT 33/18 A2992 RMK A01 T03310180  RH  043%=      5-min Rain = 0
KGDS 072145Z 07004G10KT 33/18 A2992 RMK A01 T03280181  RH  044%=      5-min Rain = 0
KGDS 072150Z 08004G9KT 33/18 A2992 RMK A01 T03320182  RH  043%=      5-min Rain = 0
KGDS 072155Z 10009G15KT 33/19 A2991 RMK A01 T03320185  RH  044%=      5-min Rain = 0
KGDS 072200Z 10008KT 33/18 A2991 RMK A01 T03310184  RH  044%=      5-min Rain = 0
KGDS 072205Z 09009KT 34/18 A2991 RMK A01 T03350184  RH  043%=      5-min Rain = 0
KGDS 072210Z 09006G12KT 33/18 A2991 RMK A01 T03300184  RH  044%=      5-min Rain = 0
KGDS 072215Z 08006G13KT 33/18 A299 RMK A01 T03300182  RH  044%=      5-min Rain = 0
KGDS 072220Z 08009KT 33/18 A299 RMK A01 T03320184  RH  044%=      5-min Rain = 0
KGDS 072225Z 09006KT 33/18 A299 RMK A01 T03290184  RH  045%=      5-min Rain = 0
KGDS 072230Z 09012G17KT 33/18 A299 RMK A01 T03300183  RH  044%=      5-min Rain = 0
KGDS 072235Z 10009KT 33/18 A299 RMK A01 T03310181  RH  043%=      5-min Rain = 0
KGDS 072240Z 09006KT 33/18 A299 RMK A01 T03280182  RH  044%=      5-min Rain = 0
KGDS 072245Z 09009KT 33/19 A299 RMK A01 T03290185  RH  045%=      5-min Rain = 0
KGDS 072250Z 10008KT 33/18 A299 RMK A01 T03250184  RH  046%=      5-min Rain = 0
KGDS 072255Z 13008G13KT 33/19 A299 RMK A01 T03290185  RH  045%=      5-min Rain = 0
KGDS 072300Z 14009G14KT 33/18 A299 RMK A01 T03270184  RH  045%=      5-min Rain = 0
KGDS 072305Z 13010KT 33/18 A299 RMK A01 T03290184  RH  045%=      5-min Rain = 0
KGDS 072310Z 13009KT 33/19 A299 RMK A01 T03290186  RH  045%=      5-min Rain = 0
KGDS 072315Z 13008KT 33/19 A2989 RMK A01 T03280187  RH  046%=      5-min Rain = 0
KGDS 072320Z 11009G14KT 33/19 A2989 RMK A01 T03250187  RH  047%=      5-min Rain = 0
KGDS 072325Z 13008KT 33/19 A2989 RMK A01 T03260185  RH  046%=      5-min Rain = 0
KGDS 072330Z 13007KT 33/18 A2989 RMK A01 T03250183  RH  045%=      5-min Rain = 0
KGDS 072335Z 13007KT 32/18 A2989 RMK A01 T03240183  RH  046%=      5-min Rain = 0
KGDS 072340Z 15006KT 32/19 A2989 RMK A01 T03240185  RH  046%=      5-min Rain = 0
KGDS 072345Z 12008KT 33/19 A2989 RMK A01 T03270185  RH  046%=      5-min Rain = 0
KGDS 072350Z 14007KT 32/18 A2989 RMK A01 T03240183  RH  046%=      5-min Rain = 0
KGDS 072355Z 11008KT 32/18 A2989 RMK A01 T03240183  RH  046%=      5-min Rain = 0
KGDS 080000Z 13009KT 32/18 A2989 RMK A01 T03240184  RH  046%=      5-min Rain = 0
KGDS 080005Z 14010KT 32/19 A2989 RMK A01 T03230185  RH  046%=      5-min Rain = 0
KGDS 080010Z 12009KT 32/18 A2989 RMK A01 T03220184  RH  046%=      5-min Rain = 0
KGDS 080015Z 12008G13KT 32/19 A2989 RMK A01 T03200185  RH  047%=      5-min Rain = 0
KGDS 080020Z 11010KT 32/18 A2989 RMK A01 T03200183  RH  047%=      5-min Rain = 0
KGDS 080025Z 11008G14KT 32/19 A2989 RMK A01 T03190186  RH  048%=      5-min Rain = 0
KGDS 080030Z 11010KT 32/19 A2989 RMK A01 T03200188  RH  048%=      5-min Rain = 0
KGDS 080035Z 11009KT 32/19 A2989 RMK A01 T03200189  RH  048%=      5-min Rain = 0
KGDS 080040Z 11010KT 32/19 A2989 RMK A01 T03160189  RH  049%=      5-min Rain = 0
KGDS 080045Z 12009G14KT 32/19 A2989 RMK A01 T03170189  RH  049%=      5-min Rain = 0
KGDS 080050Z 11012KT 31/19 A2989 RMK A01 T03130190  RH  051%=      5-min Rain = 0
KGDS 080055Z 12011KT 31/19 A2989 RMK A01 T03120191  RH  052%=      5-min Rain = 0
KGDS 080100Z 11011KT 31/19 A2989 RMK A01 T03110192  RH  052%=      5-min Rain = 0
KGDS 080105Z 12009KT 31/19 A2989 RMK A01 T03100191  RH  052%=      5-min Rain = 0
KGDS 080110Z 12010KT 31/19 A2989 RMK A01 T03090191  RH  052%=      5-min Rain = 0
KGDS 080115Z 11011KT 31/20 A2989 RMK A01 T03060195  RH  054%=      5-min Rain = 0
KGDS 080120Z 11010G15KT 30/20 A2989 RMK A01 T03040196  RH  056%=      5-min Rain = 0
KGDS 080125Z 12011KT 30/20 A2989 RMK A01 T03030197  RH  056%=      5-min Rain = 0
KGDS 080130Z 12010KT 30/20 A2989 RMK A01 T03010197  RH  057%=      5-min Rain = 0
KGDS 080135Z 12010KT 30/20 A2989 RMK A01 T02990195  RH  057%=      5-min Rain = 0
KGDS 080140Z 12010KT 30/20 A299 RMK A01 T02980195  RH  057%=      5-min Rain = 0
KGDS 080145Z 11009KT 30/20 A299 RMK A01 T02960197  RH  059%=      5-min Rain = 0
KGDS 080150Z 11008KT 29/20 A2991 RMK A01 T02930199  RH  060%=      5-min Rain = 0
KGDS 080155Z 11006KT 29/20 A2991 RMK A01 T02910199  RH  061%=      5-min Rain = 0
KGDS 080200Z 11007KT 29/20 A2991 RMK A01 T02890198  RH  061%=      5-min Rain = 0
KGDS 080205Z 11007KT 29/20 A2991 RMK A01 T02880198  RH  062%=      5-min Rain = 0
KGDS 080210Z 11005KT 29/20 A2991 RMK A01 T02850198  RH  062%=      5-min Rain = 0
KGDS 080215Z 10006KT 28/20 A2992 RMK A01 T02820198  RH  064%=      5-min Rain = 0
KGDS 080220Z 10006KT 28/20 A2992 RMK A01 T02810199  RH  064%=      5-min Rain = 0
KGDS 080225Z 10006KT 28/20 A2992 RMK A01 T02790199  RH  066%=      5-min Rain = 0
KGDS 080230Z 10006KT 28/20 A2992 RMK A01 T02760199  RH  067%=      5-min Rain = 0
KGDS 080235Z 10006KT 27/20 A2992 RMK A01 T02740199  RH  068%=      5-min Rain = 0
KGDS 080240Z 10005KT 27/20 A2992 RMK A01 T02710199  RH  068%=      5-min Rain = 0
KGDS 080245Z 10006KT 27/20 A2992 RMK A01 T02700199  RH  069%=      5-min Rain = 0
KGDS 080250Z 09006KT 27/20 A2993 RMK A01 T02680199  RH  070%=      5-min Rain = 0
KGDS 080255Z 09006KT 27/20 A2993 RMK A01 T02680199  RH  070%=      5-min Rain = 0
KGDS 080300Z 09006KT 27/20 A2993 RMK A01 T02680198  RH  070%=      5-min Rain = 0
KGDS 080305Z 09006KT 27/20 A2993 RMK A01 T02670198  RH  069%=      5-min Rain = 0
KGDS 080310Z 10006KT 27/20 A2993 RMK A01 T02660197  RH  070%=      5-min Rain = 0
KGDS 080315Z 10005KT 27/20 A2994 RMK A01 T02650197  RH  070%=      5-min Rain = 0
KGDS 080320Z 10005KT 27/20 A2993 RMK A01 T02650196  RH  070%=      5-min Rain = 0
KGDS 080325Z 09005KT 26/20 A2993 RMK A01 T02630196  RH  070%=      5-min Rain = 0
KGDS 080330Z 09006KT 26/20 A2994 RMK A01 T02610195  RH  071%=      5-min Rain = 0
KGDS 080335Z 08006KT 26/20 A2994 RMK A01 T02620195  RH  071%=      5-min Rain = 0
KGDS 080340Z 08006KT 26/20 A2994 RMK A01 T02620195  RH  070%=      5-min Rain = 0
KGDS 080345Z 08006KT 26/20 A2994 RMK A01 T02620196  RH  071%=      5-min Rain = 0
KGDS 080350Z 09006KT 26/20 A2994 RMK A01 T02600197  RH  072%=      5-min Rain = 0
KGDS 080355Z 09007KT 26/20 A2994 RMK A01 T02580197  RH  073%=      5-min Rain = 0
KGDS 080400Z 09006KT 26/20 A2994 RMK A01 T02570198  RH  074%=      5-min Rain = 0
KGDS 080405Z 09007KT 26/20 A2994 RMK A01 T02570197  RH  074%=      5-min Rain = 0
KGDS 080410Z 10007KT 26/20 A2994 RMK A01 T02570197  RH  073%=      5-min Rain = 0
KGDS 080415Z 10007KT 26/20 A2994 RMK A01 T02580197  RH  073%=      5-min Rain = 0
KGDS 080420Z 10006KT 26/20 A2994 RMK A01 T02580197  RH  073%=      5-min Rain = 0
KGDS 080425Z 10006KT 26/20 A2994 RMK A01 T02560197  RH  074%=      5-min Rain = 0
KGDS 080430Z 10006KT 26/20 A2993 RMK A01 T02550198  RH  075%=      5-min Rain = 0
KGDS 080435Z 10006KT 26/20 A2993 RMK A01 T02550198  RH  075%=      5-min Rain = 0
KGDS 080440Z 10006KT 26/20 A2993 RMK A01 T02550197  RH  075%=      5-min Rain = 0
KGDS 080445Z 10006KT 25/20 A2993 RMK A01 T02540197  RH  075%=      5-min Rain = 0
KGDS 080450Z 10007KT 25/20 A2993 RMK A01 T02540197  RH  075%=      5-min Rain = 0
KGDS 080455Z 11007KT 25/20 A2993 RMK A01 T02530197  RH  075%=      5-min Rain = 0

Page generated in 0.0186 seconds.